Tropical Cyclones
[Index]
Main Index Home Page Stock Weather Photos Extreme Storms Discussion Storm News and Storm Chasing Reports Tropical Cyclones / Hurricanes / Typhoons Weather Data and Links Wild Fires / Bushfires Weather Observation Techniques Weather Picture Catalogue Tornado Pictures and Reports Stock Video Footage and DVDs for sale
Season 1993-1994 Tropical Cyclone NADIA Track Map
Season 1993-1994 Summaries: [BoM-AU] [JTWC-AU] [JTWC-SIO] [JTWC-SPAC] [JTWC-SH]
<<- Previous TC | JTWC 1993-1994 Season | Next TC ->>

click for intensity scale information  Lat/long Grid: Show Hide

 Date Labels: Show Hide

Joint Typhoon Warning Centre Cyclone Data

Name: NADIA

17 Mar 1994 18:00 UTC to 02 Apr 1994 00:00 UTC

    date/time    lat    long     hPa   cat  kts
1994-03-17 18   13.2    73.6                  20          
1994-03-18 00   13.0    72.5                  20          
1994-03-18 06   12.8    71.4                  20          
1994-03-18 12   12.6    70.3                  20          
1994-03-18 18   12.4    69.2                  25          
1994-03-19 00   12.2    68.2                  25          
1994-03-19 06   12.0    67.2                  25          
1994-03-19 12   11.8    66.1                  30          
1994-03-19 18   11.7    65.0                  30          
1994-03-20 00   11.7    64.0                  35          
1994-03-20 06   11.8    63.0            1     40          
1994-03-20 12   11.9    62.0            1     45          
1994-03-20 18   12.1    61.0            2     55          
1994-03-21 00   12.3    59.9            2     65          
1994-03-21 06   12.5    58.7            3     75          
1994-03-21 12   12.7    57.6            3     90          
1994-03-21 18   12.8    56.5            4    105          
1994-03-22 00   12.9    55.4            4    120          
1994-03-22 06   13.0    54.2            4    120          
1994-03-22 12   13.0    52.9            4    110          
1994-03-22 18   13.0    51.5            4    100          
1994-03-23 00   13.1    50.0            3     95          
1994-03-23 06   13.3    48.5            3     80          
1994-03-23 12   13.6    47.0            2     70          
1994-03-23 18   14.0    45.6            3     75          
1994-03-24 00   14.2    44.3            3     75          
1994-03-24 06   14.2    43.1            3     75          
1994-03-24 12   14.3    41.9            3     80          
1994-03-24 18   14.5    40.7            3     75          
1994-03-25 00   14.8    39.6            1     50          
1994-03-25 06   15.2    38.6                  30          
1994-03-25 12   15.6    37.6                  20          
1994-03-25 18   16.2    36.9                  20          
1994-03-26 00   16.8    36.3                  15          
1994-03-26 06   17.4    35.9                  15          
1994-03-26 12   18.0    35.8                  15          
1994-03-26 18   18.6    35.7                  20          
1994-03-27 00   19.1    35.7                  20          
1994-03-27 06   19.6    35.8                  25          
1994-03-27 12   20.0    36.0                  25          
1994-03-27 18   20.3    36.2                  30          
1994-03-28 00   20.6    36.6                  30          
1994-03-28 06   20.6    37.0                  35          
1994-03-28 12   20.3    37.2            1     40          
1994-03-28 18   20.0    37.4            1     40          
1994-03-29 00   19.8    37.6            1     45          
1994-03-29 06   19.5    37.8            1     45          
1994-03-29 12   19.2    38.0            1     45          
1994-03-29 18   19.0    38.2            1     50          
1994-03-30 00   18.8    38.6            1     50          
1994-03-30 06   18.7    39.0            1     50          
1994-03-30 12   18.7    39.4            1     50          
1994-03-30 18   18.7    39.8            1     50          
1994-03-31 00   18.8    40.2            1     45          
1994-03-31 06   18.9    40.5            1     45          
1994-03-31 12   19.0    40.8            1     40          
1994-03-31 18   19.1    41.0                  35          
1994-04-01 00   19.3    41.1                  30          
1994-04-01 06   19.6    41.1                  30          
1994-04-01 12   19.9    40.8                  25          
1994-04-01 18   20.2    40.4                  25          
1994-04-02 00   20.5    40.0                  20          
Winds are 1-min average.

Tropical cyclone tracks developed by Michael Bath using data from the Joint Typhoon Warning Centre Best Tracks and Google Maps.


[Australian Severe Weather index] [Copyright Notice] [Email Contacts] [Search This Site] [Privacy Policy]
Document: tropical_cyclone_nadia.htm Updated: 18 September 2016